sensor_id;sensor_type;location;lat;lon;timestamp;pressure;altitude;pressure_sealevel;temperature;humidity
74218;BME280;62579;47.288;18.646;2022-08-20T00:00:08;99313.97;;;21.19;84.80
74218;BME280;62579;47.288;18.646;2022-08-20T00:02:44;99311.22;;;21.19;84.86
74218;BME280;62579;47.288;18.646;2022-08-20T00:05:09;99313.97;;;21.38;83.56
74218;BME280;62579;47.288;18.646;2022-08-20T00:07:35;99326.66;;;21.41;83.42
74218;BME280;62579;47.288;18.646;2022-08-20T00:10:00;99337.44;;;21.18;83.94
74218;BME280;62579;47.288;18.646;2022-08-20T00:12:25;99340.94;;;21.19;83.71
74218;BME280;62579;47.288;18.646;2022-08-20T00:14:51;99354.03;;;21.28;83.33
74218;BME280;62579;47.288;18.646;2022-08-20T00:17:16;99351.56;;;21.22;83.23
74218;BME280;62579;47.288;18.646;2022-08-20T00:19:41;99344.41;;;21.19;82.98
74218;BME280;62579;47.288;18.646;2022-08-20T00:22:07;99339.19;;;21.23;82.66
74218;BME280;62579;47.288;18.646;2022-08-20T00:24:32;99351.84;;;21.07;83.59
74218;BME280;62579;47.288;18.646;2022-08-20T00:26:59;99344.81;;;21.06;83.21
74218;BME280;62579;47.288;18.646;2022-08-20T00:29:24;99331.91;;;21.18;83.48
74218;BME280;62579;47.288;18.646;2022-08-20T00:31:49;99336.84;;;21.20;83.86
74218;BME280;62579;47.288;18.646;2022-08-20T00:34:15;99348.53;;;21.18;83.87
74218;BME280;62579;47.288;18.646;2022-08-20T00:36:40;99341.66;;;21.10;83.91
74218;BME280;62579;47.288;18.646;2022-08-20T00:39:05;99323.84;;;21.03;83.78
74218;BME280;62579;47.288;18.646;2022-08-20T00:41:31;99339.78;;;21.12;83.24
74218;BME280;62579;47.288;18.646;2022-08-20T00:46:26;99377.56;;;20.81;86.51
74218;BME280;62579;47.288;18.646;2022-08-20T00:48:53;99374.50;;;20.86;86.48
74218;BME280;62579;47.288;18.646;2022-08-20T00:51:23;99363.25;;;20.75;86.73
74218;BME280;62579;47.288;18.646;2022-08-20T00:56:35;99340.56;;;20.76;85.84
74218;BME280;62579;47.288;18.646;2022-08-20T00:59:05;99346.13;;;20.86;84.89
74218;BME280;62579;47.288;18.646;2022-08-20T01:01:36;99346.09;;;20.76;85.38
74218;BME280;62579;47.288;18.646;2022-08-20T01:04:02;99348.88;;;20.86;84.57
74218;BME280;62579;47.288;18.646;2022-08-20T01:06:29;99348.56;;;20.82;84.58
74218;BME280;62579;47.288;18.646;2022-08-20T01:08:55;99341.00;;;20.82;84.91
74218;BME280;62579;47.288;18.646;2022-08-20T01:11:20;99314.22;;;20.75;84.88
74218;BME280;62579;47.288;18.646;2022-08-20T01:13:52;99282.50;;;20.86;84.63
74218;BME280;62579;47.288;18.646;2022-08-20T01:16:27;99273.91;;;20.82;85.03
74218;BME280;62579;47.288;18.646;2022-08-20T01:18:54;99285.97;;;20.77;84.81
74218;BME280;62579;47.288;18.646;2022-08-20T01:21:23;99281.91;;;20.78;84.59
74218;BME280;62579;47.288;18.646;2022-08-20T01:24:06;99283.22;;;20.77;84.38
74218;BME280;62579;47.288;18.646;2022-08-20T01:26:39;99280.59;;;20.69;84.23
74218;BME280;62579;47.288;18.646;2022-08-20T01:29:10;99277.53;;;20.75;84.32
74218;BME280;62579;47.288;18.646;2022-08-20T01:31:39;99274.22;;;20.86;83.61
74218;BME280;62579;47.288;18.646;2022-08-20T01:34:09;99263.13;;;20.86;83.45
74218;BME280;62579;47.288;18.646;2022-08-20T01:36:38;99251.63;;;20.80;83.38
74218;BME280;62579;47.288;18.646;2022-08-20T01:39:07;99259.78;;;20.87;83.26
74218;BME280;62579;47.288;18.646;2022-08-20T01:42:10;99256.44;;;20.79;83.71
74218;BME280;62579;47.288;18.646;2022-08-20T01:44:40;99253.53;;;20.87;83.31
74218;BME280;62579;47.288;18.646;2022-08-20T01:47:13;99246.53;;;20.95;82.79
74218;BME280;62579;47.288;18.646;2022-08-20T01:49:46;99250.62;;;21.04;82.57
74218;BME280;62579;47.288;18.646;2022-08-20T01:52:30;99253.53;;;21.06;83.00
74218;BME280;62579;47.288;18.646;2022-08-20T01:54:57;99252.97;;;21.08;83.19
74218;BME280;62579;47.288;18.646;2022-08-20T01:57:24;99260.13;;;21.11;83.15
74218;BME280;62579;47.288;18.646;2022-08-20T01:59:51;99268.56;;;21.13;82.80
74218;BME280;62579;47.288;18.646;2022-08-20T02:02:16;99268.84;;;21.17;82.41
74218;BME280;62579;47.288;18.646;2022-08-20T02:04:42;99266.94;;;21.19;82.09
74218;BME280;62579;47.288;18.646;2022-08-20T02:07:14;99280.94;;;21.12;82.54
74218;BME280;62579;47.288;18.646;2022-08-20T02:09:40;99278.16;;;21.12;82.60
74218;BME280;62579;47.288;18.646;2022-08-20T02:12:07;99290.09;;;21.14;82.51
74218;BME280;62579;47.288;18.646;2022-08-20T02:14:33;99299.56;;;21.21;81.86
74218;BME280;62579;47.288;18.646;2022-08-20T02:16:59;99309.06;;;21.08;81.43
74218;BME280;62579;47.288;18.646;2022-08-20T02:19:30;99311.94;;;21.20;81.07
74218;BME280;62579;47.288;18.646;2022-08-20T02:21:59;99285.00;;;21.20;80.90
74218;BME280;62579;47.288;18.646;2022-08-20T02:24:26;99280.22;;;21.21;82.10
74218;BME280;62579;47.288;18.646;2022-08-20T02:26:52;99286.19;;;21.27;81.48
74218;BME280;62579;47.288;18.646;2022-08-20T02:29:17;99303.22;;;21.23;82.21
74218;BME280;62579;47.288;18.646;2022-08-20T02:31:44;99298.41;;;21.14;81.41
74218;BME280;62579;47.288;18.646;2022-08-20T02:34:11;99282.09;;;21.09;81.31
74218;BME280;62579;47.288;18.646;2022-08-20T02:36:37;99288.06;;;21.15;80.93
74218;BME280;62579;47.288;18.646;2022-08-20T02:39:05;99299.56;;;21.11;81.39
74218;BME280;62579;47.288;18.646;2022-08-20T02:41:33;99300.28;;;21.12;81.41
74218;BME280;62579;47.288;18.646;2022-08-20T02:43:58;99311.31;;;20.92;82.30
74218;BME280;62579;47.288;18.646;2022-08-20T02:46:23;99331.72;;;20.97;82.53
74218;BME280;62579;47.288;18.646;2022-08-20T02:48:49;99336.22;;;20.92;82.59
74218;BME280;62579;47.288;18.646;2022-08-20T02:51:15;99362.00;;;20.95;82.63
74218;BME280;62579;47.288;18.646;2022-08-20T02:53:40;99372.19;;;20.92;82.57
74218;BME280;62579;47.288;18.646;2022-08-20T02:56:09;99370.88;;;20.84;83.07
74218;BME280;62579;47.288;18.646;2022-08-20T02:58:36;99377.41;;;20.88;83.30
74218;BME280;62579;47.288;18.646;2022-08-20T03:01:04;99371.84;;;20.69;84.17
74218;BME280;62579;47.288;18.646;2022-08-20T03:03:30;99366.44;;;20.62;84.61
74218;BME280;62579;47.288;18.646;2022-08-20T03:05:57;99364.53;;;20.64;84.25
74218;BME280;62579;47.288;18.646;2022-08-20T03:08:23;99360.03;;;20.59;84.61
74218;BME280;62579;47.288;18.646;2022-08-20T03:10:49;99355.06;;;20.58;84.31
74218;BME280;62579;47.288;18.646;2022-08-20T03:13:16;99358.00;;;20.60;84.02
74218;BME280;62579;47.288;18.646;2022-08-20T03:15:45;99365.72;;;20.71;83.56
74218;BME280;62579;47.288;18.646;2022-08-20T03:18:12;99368.03;;;20.65;83.81
74218;BME280;62579;47.288;18.646;2022-08-20T03:20:38;99355.13;;;20.77;83.37
74218;BME280;62579;47.288;18.646;2022-08-20T03:23:04;99352.06;;;20.82;82.98
74218;BME280;62579;47.288;18.646;2022-08-20T03:25:30;99344.34;;;20.71;83.67
74218;BME280;62579;47.288;18.646;2022-08-20T03:27:56;99339.66;;;20.64;83.84
74218;BME280;62579;47.288;18.646;2022-08-20T03:30:23;99316.66;;;20.62;83.94
74218;BME280;62579;47.288;18.646;2022-08-20T03:32:49;99324.38;;;20.63;83.60
74218;BME280;62579;47.288;18.646;2022-08-20T03:35:17;99325.28;;;20.75;82.89
74218;BME280;62579;47.288;18.646;2022-08-20T03:37:42;99325.44;;;20.77;82.68
74218;BME280;62579;47.288;18.646;2022-08-20T03:40:11;99341.28;;;20.77;82.51
74218;BME280;62579;47.288;18.646;2022-08-20T03:42:37;99342.03;;;20.87;82.05
74218;BME280;62579;47.288;18.646;2022-08-20T03:45:04;99341.31;;;20.86;82.16
74218;BME280;62579;47.288;18.646;2022-08-20T03:47:30;99345.53;;;20.78;82.53
74218;BME280;62579;47.288;18.646;2022-08-20T03:50:00;99334.31;;;20.85;81.89
74218;BME280;62579;47.288;18.646;2022-08-20T03:52:26;99342.91;;;20.80;82.14
74218;BME280;62579;47.288;18.646;2022-08-20T03:54:53;99340.72;;;20.78;82.23
74218;BME280;62579;47.288;18.646;2022-08-20T03:57:18;99335.47;;;20.82;81.56
74218;BME280;62579;47.288;18.646;2022-08-20T03:59:43;99328.09;;;20.94;81.15
74218;BME280;62579;47.288;18.646;2022-08-20T04:02:10;99322.37;;;20.92;81.40
74218;BME280;62579;47.288;18.646;2022-08-20T04:04:36;99333.34;;;21.00;81.36
74218;BME280;62579;47.288;18.646;2022-08-20T04:07:17;99322.97;;;20.91;81.84
74218;BME280;62579;47.288;18.646;2022-08-20T04:09:56;99321.81;;;20.94;81.75
74218;BME280;62579;47.288;18.646;2022-08-20T04:12:22;99318.78;;;21.00;81.64
74218;BME280;62579;47.288;18.646;2022-08-20T04:14:49;99321.41;;;21.07;81.63
74218;BME280;62579;47.288;18.646;2022-08-20T04:17:15;99329.97;;;21.02;81.89
74218;BME280;62579;47.288;18.646;2022-08-20T04:19:42;99341.09;;;21.21;81.30
74218;BME280;62579;47.288;18.646;2022-08-20T04:22:09;99343.13;;;21.20;81.35
74218;BME280;62579;47.288;18.646;2022-08-20T04:24:36;99344.16;;;21.15;81.71
74218;BME280;62579;47.288;18.646;2022-08-20T04:27:01;99344.59;;;21.21;81.90
74218;BME280;62579;47.288;18.646;2022-08-20T04:29:28;99345.28;;;21.03;82.67
74218;BME280;62579;47.288;18.646;2022-08-20T04:31:54;99351.13;;;21.07;82.42
74218;BME280;62579;47.288;18.646;2022-08-20T04:34:20;99348.59;;;21.01;82.50
74218;BME280;62579;47.288;18.646;2022-08-20T04:36:46;99347.72;;;20.98;82.74
74218;BME280;62579;47.288;18.646;2022-08-20T04:39:15;99346.56;;;21.02;82.68
74218;BME280;62579;47.288;18.646;2022-08-20T04:41:41;99341.25;;;21.13;82.17
74218;BME280;62579;47.288;18.646;2022-08-20T04:44:07;99346.78;;;21.13;82.23
74218;BME280;62579;47.288;18.646;2022-08-20T04:46:33;99347.50;;;21.23;81.78
74218;BME280;62579;47.288;18.646;2022-08-20T04:48:59;99336.72;;;21.37;81.67
74218;BME280;62579;47.288;18.646;2022-08-20T04:51:28;99334.38;;;21.33;81.78
74218;BME280;62579;47.288;18.646;2022-08-20T04:53:54;99336.56;;;21.25;82.04
74218;BME280;62579;47.288;18.646;2022-08-20T04:56:22;99339.94;;;21.24;81.94
74218;BME280;62579;47.288;18.646;2022-08-20T04:58:52;99350.53;;;21.27;82.21
74218;BME280;62579;47.288;18.646;2022-08-20T05:01:18;99360.75;;;21.34;82.92
74218;BME280;62579;47.288;18.646;2022-08-20T05:03:43;99372.84;;;21.10;83.48
74218;BME280;62579;47.288;18.646;2022-08-20T05:06:12;99361.75;;;21.10;83.31
74218;BME280;62579;47.288;18.646;2022-08-20T05:08:38;99362.22;;;21.16;82.99
74218;BME280;62579;47.288;18.646;2022-08-20T05:11:05;99369.19;;;21.17;82.99
74218;BME280;62579;47.288;18.646;2022-08-20T05:13:30;99355.66;;;21.21;82.42
74218;BME280;62579;47.288;18.646;2022-08-20T05:15:56;99363.69;;;21.27;82.44
74218;BME280;62579;47.288;18.646;2022-08-20T05:18:25;99378.09;;;21.44;82.18
74218;BME280;62579;47.288;18.646;2022-08-20T05:20:52;99379.41;;;21.53;81.60
74218;BME280;62579;47.288;18.646;2022-08-20T05:23:19;99387.41;;;21.49;81.63
74218;BME280;62579;47.288;18.646;2022-08-20T05:25:45;99382.34;;;21.45;82.26
74218;BME280;62579;47.288;18.646;2022-08-20T05:28:22;99385.09;;;21.45;81.98
74218;BME280;62579;47.288;18.646;2022-08-20T05:30:49;99378.81;;;21.45;81.75
74218;BME280;62579;47.288;18.646;2022-08-20T05:33:17;99382.91;;;21.53;81.81
74218;BME280;62579;47.288;18.646;2022-08-20T05:35:45;99381.59;;;21.54;81.17
74218;BME280;62579;47.288;18.646;2022-08-20T05:38:13;99376.91;;;21.57;81.51
74218;BME280;62579;47.288;18.646;2022-08-20T05:40:40;99377.06;;;21.69;81.53
74218;BME280;62579;47.288;18.646;2022-08-20T05:43:06;99379.69;;;21.67;81.54
74218;BME280;62579;47.288;18.646;2022-08-20T05:45:34;99376.34;;;21.78;80.95
74218;BME280;62579;47.288;18.646;2022-08-20T05:48:09;99384.34;;;21.74;81.02
74218;BME280;62579;47.288;18.646;2022-08-20T05:50:36;99390.63;;;21.65;80.60
74218;BME280;62579;47.288;18.646;2022-08-20T05:53:02;99405.75;;;21.73;79.73
74218;BME280;62579;47.288;18.646;2022-08-20T05:55:28;99410.28;;;21.69;79.58
74218;BME280;62579;47.288;18.646;2022-08-20T05:57:57;99416.72;;;21.81;78.61
74218;BME280;62579;47.288;18.646;2022-08-20T06:00:23;99421.37;;;21.69;79.67
74218;BME280;62579;47.288;18.646;2022-08-20T06:02:49;99421.37;;;21.59;80.47
74218;BME280;62579;47.288;18.646;2022-08-20T06:05:33;99427.63;;;21.60;80.08
74218;BME280;62579;47.288;18.646;2022-08-20T06:07:59;99447.47;;;21.66;80.91
74218;BME280;62579;47.288;18.646;2022-08-20T06:10:24;99450.06;;;21.44;82.48
74218;BME280;62579;47.288;18.646;2022-08-20T06:12:50;99449.50;;;21.46;82.43
74218;BME280;62579;47.288;18.646;2022-08-20T06:15:17;99444.37;;;21.33;82.59
74218;BME280;62579;47.288;18.646;2022-08-20T06:17:43;99433.28;;;21.23;82.58
74218;BME280;62579;47.288;18.646;2022-08-20T06:20:09;99415.66;;;21.28;82.58
74218;BME280;62579;47.288;18.646;2022-08-20T06:22:34;99410.97;;;21.12;83.28
74218;BME280;62579;47.288;18.646;2022-08-20T06:25:00;99411.16;;;21.23;82.96
74218;BME280;62579;47.288;18.646;2022-08-20T06:27:26;99390.03;;;21.18;83.39
74218;BME280;62579;47.288;18.646;2022-08-20T06:29:52;99370.06;;;21.10;83.98
74218;BME280;62579;47.288;18.646;2022-08-20T06:32:18;99380.78;;;21.06;84.43
74218;BME280;62579;47.288;18.646;2022-08-20T06:34:45;99394.62;;;21.06;84.61
74218;BME280;62579;47.288;18.646;2022-08-20T06:37:15;99400.59;;;21.03;84.98
74218;BME280;62579;47.288;18.646;2022-08-20T06:39:42;99387.41;;;21.11;84.46
74218;BME280;62579;47.288;18.646;2022-08-20T06:42:07;99389.44;;;21.10;84.54
74218;BME280;62579;47.288;18.646;2022-08-20T06:44:32;99390.59;;;21.17;84.28
74218;BME280;62579;47.288;18.646;2022-08-20T06:47:03;99389.53;;;21.03;85.08
74218;BME280;62579;47.288;18.646;2022-08-20T06:49:29;99383.84;;;21.01;85.21
74218;BME280;62579;47.288;18.646;2022-08-20T06:51:55;99388.06;;;21.02;84.54
74218;BME280;62579;47.288;18.646;2022-08-20T06:54:21;99389.78;;;20.87;84.28
74218;BME280;62579;47.288;18.646;2022-08-20T06:56:47;99381.47;;;20.87;84.04
74218;BME280;62579;47.288;18.646;2022-08-20T06:59:13;99385.13;;;20.90;83.85
74218;BME280;62579;47.288;18.646;2022-08-20T07:01:38;99418.31;;;20.90;83.94
74218;BME280;62579;47.288;18.646;2022-08-20T07:04:03;99436.50;;;20.83;83.09
74218;BME280;62579;47.288;18.646;2022-08-20T07:06:31;99455.41;;;20.77;82.76
74218;BME280;62579;47.288;18.646;2022-08-20T07:08:57;99479.84;;;20.71;82.89
74218;BME280;62579;47.288;18.646;2022-08-20T07:11:22;99507.06;;;20.75;83.07
74218;BME280;62579;47.288;18.646;2022-08-20T07:13:48;99535.56;;;20.68;85.51
74218;BME280;62579;47.288;18.646;2022-08-20T07:16:14;99540.72;;;20.81;85.54
74218;BME280;62579;47.288;18.646;2022-08-20T07:18:40;99543.66;;;20.83;85.30
74218;BME280;62579;47.288;18.646;2022-08-20T07:21:05;99535.41;;;20.66;86.85
74218;BME280;62579;47.288;18.646;2022-08-20T07:23:30;99533.16;;;20.55;87.53
74218;BME280;62579;47.288;18.646;2022-08-20T07:25:56;99548.22;;;20.44;88.01
74218;BME280;62579;47.288;18.646;2022-08-20T07:28:26;99560.63;;;20.53;87.64
74218;BME280;62579;47.288;18.646;2022-08-20T07:30:56;99569.50;;;20.51;88.12
74218;BME280;62579;47.288;18.646;2022-08-20T07:33:40;99577.91;;;20.44;88.57
74218;BME280;62579;47.288;18.646;2022-08-20T07:36:06;99583.19;;;20.49;87.81
74218;BME280;62579;47.288;18.646;2022-08-20T07:38:33;99592.78;;;20.48;87.28
74218;BME280;62579;47.288;18.646;2022-08-20T07:41:04;99593.81;;;20.53;86.71
74218;BME280;62579;47.288;18.646;2022-08-20T07:43:31;99584.13;;;20.61;85.03
74218;BME280;62579;47.288;18.646;2022-08-20T07:45:58;99566.06;;;20.60;85.55
74218;BME280;62579;47.288;18.646;2022-08-20T07:48:31;99564.19;;;20.63;85.26
74218;BME280;62579;47.288;18.646;2022-08-20T07:50:58;99563.00;;;20.56;85.53
74218;BME280;62579;47.288;18.646;2022-08-20T07:53:25;99560.38;;;20.58;84.89
74218;BME280;62579;47.288;18.646;2022-08-20T07:55:50;99541.63;;;20.57;85.04
74218;BME280;62579;47.288;18.646;2022-08-20T07:58:17;99534.41;;;20.71;84.90
74218;BME280;62579;47.288;18.646;2022-08-20T08:00:44;99520.16;;;20.74;84.90
74218;BME280;62579;47.288;18.646;2022-08-20T08:03:10;99511.59;;;20.80;83.13
74218;BME280;62579;47.288;18.646;2022-08-20T08:05:37;99498.25;;;20.59;81.68
74218;BME280;62579;47.288;18.646;2022-08-20T08:08:06;99492.28;;;20.63;82.26
74218;BME280;62579;47.288;18.646;2022-08-20T08:10:33;99494.81;;;20.68;83.26
74218;BME280;62579;47.288;18.646;2022-08-20T08:13:04;99489.44;;;20.44;85.01
74218;BME280;62579;47.288;18.646;2022-08-20T08:15:33;99487.03;;;20.13;86.18
74218;BME280;62579;47.288;18.646;2022-08-20T08:18:07;99481.25;;;20.19;85.95
74218;BME280;62579;47.288;18.646;2022-08-20T08:20:35;99479.31;;;20.56;84.89
74218;BME280;62579;47.288;18.646;2022-08-20T08:23:06;99474.78;;;20.51;85.64
74218;BME280;62579;47.288;18.646;2022-08-20T08:25:31;99465.91;;;20.25;85.77
74218;BME280;62579;47.288;18.646;2022-08-20T08:27:57;99467.16;;;20.42;85.25
74218;BME280;62579;47.288;18.646;2022-08-20T08:30:24;99467.84;;;20.32;85.41
74218;BME280;62579;47.288;18.646;2022-08-20T08:32:50;99473.72;;;20.19;86.33
74218;BME280;62579;47.288;18.646;2022-08-20T08:35:37;99467.37;;;20.26;85.61
74218;BME280;62579;47.288;18.646;2022-08-20T08:38:03;99459.50;;;20.50;84.68
74218;BME280;62579;47.288;18.646;2022-08-20T08:40:30;99458.69;;;20.30;85.91
74218;BME280;62579;47.288;18.646;2022-08-20T08:42:59;99459.41;;;20.13;86.45
74218;BME280;62579;47.288;18.646;2022-08-20T08:45:38;99459.47;;;20.23;86.43
74218;BME280;62579;47.288;18.646;2022-08-20T08:48:15;99454.19;;;20.34;85.56
74218;BME280;62579;47.288;18.646;2022-08-20T08:50:46;99464.25;;;20.22;86.35
74218;BME280;62579;47.288;18.646;2022-08-20T08:53:19;99462.06;;;20.21;86.79
74218;BME280;62579;47.288;18.646;2022-08-20T08:55:46;99465.72;;;20.23;86.75
74218;BME280;62579;47.288;18.646;2022-08-20T08:58:12;99465.50;;;20.29;86.25
74218;BME280;62579;47.288;18.646;2022-08-20T09:00:37;99454.44;;;20.29;86.51
74218;BME280;62579;47.288;18.646;2022-08-20T09:03:07;99465.50;;;20.29;86.25
74218;BME280;62579;47.288;18.646;2022-08-20T09:08:05;99476.13;;;20.15;87.27
74218;BME280;62579;47.288;18.646;2022-08-20T09:10:31;99471.19;;;20.14;87.75
74218;BME280;62579;47.288;18.646;2022-08-20T09:12:57;99471.03;;;20.29;86.95
74218;BME280;62579;47.288;18.646;2022-08-20T09:15:22;99467.84;;;20.32;87.08
74218;BME280;62579;47.288;18.646;2022-08-20T09:17:48;99456.09;;;20.42;86.38
74218;BME280;62579;47.288;18.646;2022-08-20T09:20:13;99446.66;;;20.45;86.03
74218;BME280;62579;47.288;18.646;2022-08-20T09:22:39;99449.75;;;20.49;85.93
74218;BME280;62579;47.288;18.646;2022-08-20T09:25:05;99451.78;;;20.48;85.75
74218;BME280;62579;47.288;18.646;2022-08-20T09:27:30;99450.66;;;20.51;85.60
74218;BME280;62579;47.288;18.646;2022-08-20T09:29:56;99464.00;;;20.45;85.74
74218;BME280;62579;47.288;18.646;2022-08-20T09:32:23;99469.09;;;20.49;85.73
74218;BME280;62579;47.288;18.646;2022-08-20T09:34:52;99477.41;;;20.49;85.60
74218;BME280;62579;47.288;18.646;2022-08-20T09:37:21;99469.72;;;20.57;85.34
74218;BME280;62579;47.288;18.646;2022-08-20T09:39:47;99477.22;;;20.47;84.13
74218;BME280;62579;47.288;18.646;2022-08-20T09:42:18;99470.13;;;20.26;84.68
74218;BME280;62579;47.288;18.646;2022-08-20T09:44:44;99476.59;;;20.38;84.51
74218;BME280;62579;47.288;18.646;2022-08-20T09:47:10;99467.13;;;20.32;84.96
74218;BME280;62579;47.288;18.646;2022-08-20T09:49:36;99469.41;;;20.26;85.99
74218;BME280;62579;47.288;18.646;2022-08-20T09:52:04;99463.38;;;20.37;85.16
74218;BME280;62579;47.288;18.646;2022-08-20T09:54:31;99449.53;;;20.20;85.86
74218;BME280;62579;47.288;18.646;2022-08-20T09:56:59;99427.81;;;20.24;86.20
74218;BME280;62579;47.288;18.646;2022-08-20T09:59:27;99421.03;;;20.17;86.60
74218;BME280;62579;47.288;18.646;2022-08-20T10:01:52;99423.84;;;20.00;86.94
74218;BME280;62579;47.288;18.646;2022-08-20T10:04:18;99432.53;;;19.97;87.30
74218;BME280;62579;47.288;18.646;2022-08-20T10:06:44;99446.72;;;20.10;87.11
74218;BME280;62579;47.288;18.646;2022-08-20T10:09:09;99453.03;;;20.20;87.00
74218;BME280;62579;47.288;18.646;2022-08-20T10:11:35;99460.28;;;20.16;87.46
74218;BME280;62579;47.288;18.646;2022-08-20T10:14:00;99474.31;;;20.45;86.69
74218;BME280;62579;47.288;18.646;2022-08-20T10:16:25;99475.63;;;20.44;87.98
74218;BME280;62579;47.288;18.646;2022-08-20T10:18:51;99469.16;;;20.58;87.40
74218;BME280;62579;47.288;18.646;2022-08-20T10:21:17;99469.59;;;20.91;85.99
74218;BME280;62579;47.288;18.646;2022-08-20T10:23:43;99460.28;;;20.96;86.91
74218;BME280;62579;47.288;18.646;2022-08-20T10:26:10;99464.56;;;21.07;84.95
74218;BME280;62579;47.288;18.646;2022-08-20T10:28:36;99470.31;;;21.37;83.28
74218;BME280;62579;47.288;18.646;2022-08-20T10:31:01;99473.50;;;21.24;84.77
74218;BME280;62579;47.288;18.646;2022-08-20T10:33:28;99483.91;;;21.52;82.29
74218;BME280;62579;47.288;18.646;2022-08-20T10:35:54;99472.09;;;21.62;82.70
74218;BME280;62579;47.288;18.646;2022-08-20T10:38:19;99468.88;;;21.55;84.47
74218;BME280;62579;47.288;18.646;2022-08-20T10:40:44;99463.50;;;21.77;80.40
74218;BME280;62579;47.288;18.646;2022-08-20T10:43:10;99468.31;;;21.86;80.86
74218;BME280;62579;47.288;18.646;2022-08-20T10:45:35;99470.38;;;21.85;80.94
74218;BME280;62579;47.288;18.646;2022-08-20T10:48:01;99460.16;;;21.78;78.90
74218;BME280;62579;47.288;18.646;2022-08-20T10:50:26;99467.47;;;21.93;79.02
74218;BME280;62579;47.288;18.646;2022-08-20T10:52:51;99469.34;;;22.00;78.49
74218;BME280;62579;47.288;18.646;2022-08-20T10:55:17;99470.81;;;22.10;79.79
74218;BME280;62579;47.288;18.646;2022-08-20T10:57:42;99470.22;;;22.12;78.74
74218;BME280;62579;47.288;18.646;2022-08-20T11:00:11;99478.06;;;22.35;79.65
74218;BME280;62579;47.288;18.646;2022-08-20T11:02:37;99482.84;;;22.53;77.25
74218;BME280;62579;47.288;18.646;2022-08-20T11:05:05;99480.09;;;22.44;75.48
74218;BME280;62579;47.288;18.646;2022-08-20T11:07:35;99468.25;;;22.43;76.19
74218;BME280;62579;47.288;18.646;2022-08-20T11:10:02;99480.34;;;22.67;77.90
74218;BME280;62579;47.288;18.646;2022-08-20T11:12:28;99479.12;;;22.80;78.38
74218;BME280;62579;47.288;18.646;2022-08-20T11:14:54;99483.00;;;22.96;76.60
74218;BME280;62579;47.288;18.646;2022-08-20T11:17:28;99483.97;;;23.10;77.63
74218;BME280;62579;47.288;18.646;2022-08-20T11:19:55;99490.34;;;22.91;76.30
74218;BME280;62579;47.288;18.646;2022-08-20T11:22:21;99497.87;;;23.00;77.37
74218;BME280;62579;47.288;18.646;2022-08-20T11:24:46;99493.50;;;23.28;73.93
74218;BME280;62579;47.288;18.646;2022-08-20T11:27:22;99496.41;;;23.30;73.58
74218;BME280;62579;47.288;18.646;2022-08-20T11:29:48;99495.28;;;23.23;72.41
74218;BME280;62579;47.288;18.646;2022-08-20T11:32:14;99482.37;;;23.07;74.15
74218;BME280;62579;47.288;18.646;2022-08-20T11:34:39;99488.25;;;23.01;74.86
74218;BME280;62579;47.288;18.646;2022-08-20T11:37:05;99490.28;;;23.01;75.46
74218;BME280;62579;47.288;18.646;2022-08-20T11:39:30;99485.22;;;22.88;76.86
74218;BME280;62579;47.288;18.646;2022-08-20T11:41:55;99483.75;;;22.87;75.96
74218;BME280;62579;47.288;18.646;2022-08-20T11:44:21;99481.28;;;22.91;77.15
74218;BME280;62579;47.288;18.646;2022-08-20T11:46:47;99491.91;;;22.94;75.13
74218;BME280;62579;47.288;18.646;2022-08-20T11:49:12;99489.28;;;22.96;75.39
74218;BME280;62579;47.288;18.646;2022-08-20T11:51:37;99483.44;;;22.92;76.10
74218;BME280;62579;47.288;18.646;2022-08-20T11:54:04;99484.25;;;22.73;76.49
74218;BME280;62579;47.288;18.646;2022-08-20T11:56:30;99479.88;;;22.70;76.17
74218;BME280;62579;47.288;18.646;2022-08-20T11:58:55;99479.56;;;22.86;75.68
74218;BME280;62579;47.288;18.646;2022-08-20T12:01:20;99474.22;;;22.99;75.66
74218;BME280;62579;47.288;18.646;2022-08-20T12:03:46;99459.72;;;22.80;76.55
74218;BME280;62579;47.288;18.646;2022-08-20T12:06:11;99459.25;;;22.83;76.13
74218;BME280;62579;47.288;18.646;2022-08-20T12:08:38;99460.81;;;22.96;75.42
74218;BME280;62579;47.288;18.646;2022-08-20T12:11:03;99462.53;;;23.01;75.57
74218;BME280;62579;47.288;18.646;2022-08-20T12:13:32;99463.53;;;22.75;76.46
74218;BME280;62579;47.288;18.646;2022-08-20T12:15:58;99463.59;;;22.96;76.59
74218;BME280;62579;47.288;18.646;2022-08-20T12:20:59;99458.38;;;23.11;74.53
74218;BME280;62579;47.288;18.646;2022-08-20T12:23:24;99459.87;;;23.03;75.15
74218;BME280;62579;47.288;18.646;2022-08-20T12:25:50;99451.84;;;23.07;75.53
74218;BME280;62579;47.288;18.646;2022-08-20T12:28:15;99440.84;;;22.88;76.05
74218;BME280;62579;47.288;18.646;2022-08-20T12:30:41;99431.72;;;22.97;75.48
74218;BME280;62579;47.288;18.646;2022-08-20T12:33:06;99430.09;;;23.03;75.96
74218;BME280;62579;47.288;18.646;2022-08-20T12:35:32;99429.09;;;22.99;76.39
74218;BME280;62579;47.288;18.646;2022-08-20T12:38:01;99417.34;;;23.10;76.29
74218;BME280;62579;47.288;18.646;2022-08-20T12:40:28;99420.69;;;23.08;77.04
74218;BME280;62579;47.288;18.646;2022-08-20T12:42:53;99417.03;;;22.85;76.87
74218;BME280;62579;47.288;18.646;2022-08-20T12:45:19;99419.94;;;22.87;76.40
74218;BME280;62579;47.288;18.646;2022-08-20T12:47:46;99411.84;;;23.00;75.31
74218;BME280;62579;47.288;18.646;2022-08-20T12:50:22;99410.78;;;23.05;75.07
74218;BME280;62579;47.288;18.646;2022-08-20T12:52:48;99409.38;;;22.95;74.32
74218;BME280;62579;47.288;18.646;2022-08-20T12:55:18;99407.75;;;23.01;74.02
74218;BME280;62579;47.288;18.646;2022-08-20T12:57:48;99407.19;;;22.72;76.09
74218;BME280;62579;47.288;18.646;2022-08-20T13:00:24;99398.37;;;22.76;76.43